createdAt,value
2022-10-11T00:02:12.693Z,9.00
2022-10-11T00:04:39.226Z,8.97
2022-10-11T00:07:05.862Z,8.87
2022-10-11T00:09:33.847Z,8.80
2022-10-11T00:12:00.540Z,8.71
2022-10-11T00:14:28.218Z,8.66
2022-10-11T00:16:55.204Z,8.55
2022-10-11T00:19:21.984Z,8.42
2022-10-11T00:21:48.566Z,8.32
2022-10-11T00:24:15.129Z,8.21
2022-10-11T00:26:46.544Z,8.10
2022-10-11T00:29:14.099Z,7.95
2022-10-11T00:31:40.758Z,7.82
2022-10-11T00:34:07.915Z,7.72
2022-10-11T00:36:34.557Z,7.60
2022-10-11T00:39:01.045Z,7.51
2022-10-11T00:41:27.609Z,7.42
2022-10-11T00:44:16.549Z,7.40
2022-10-11T00:46:51.788Z,7.43
2022-10-11T00:49:28.644Z,7.40
2022-10-11T00:51:58.319Z,7.33
2022-10-11T00:54:28.732Z,7.23
2022-10-11T00:57:00.193Z,7.08
2022-10-11T00:59:31.082Z,6.96
2022-10-11T01:01:57.697Z,6.86
2022-10-11T01:04:24.339Z,6.74
2022-10-11T01:06:51.617Z,6.65
2022-10-11T01:09:19.796Z,6.54
2022-10-11T01:11:48.172Z,6.48
2022-10-11T01:14:38.438Z,6.39
2022-10-11T01:17:17.077Z,6.33
2022-10-11T01:20:06.397Z,6.27
2022-10-11T01:22:55.912Z,6.29
2022-10-11T01:25:32.613Z,6.21
2022-10-11T01:28:14.834Z,6.11
2022-10-11T01:30:43.231Z,6.01
2022-10-11T01:33:20.865Z,5.93
2022-10-11T01:35:57.139Z,5.85
2022-10-11T01:38:30.248Z,5.75
2022-10-11T01:41:03.630Z,5.65
2022-10-11T01:43:31.116Z,5.55
2022-10-11T01:46:00.592Z,5.47
2022-10-11T01:48:27.379Z,5.41
2022-10-11T01:50:56.359Z,5.34
2022-10-11T01:53:47.377Z,5.26
2022-10-11T01:56:25.406Z,5.18
2022-10-11T01:59:08.618Z,5.14
2022-10-11T02:01:49.963Z,5.08
2022-10-11T02:04:23.285Z,5.04
2022-10-11T02:06:58.148Z,4.99
2022-10-11T02:09:33.826Z,4.92
2022-10-11T02:12:05.254Z,4.86
2022-10-11T02:14:36.465Z,4.83
2022-10-11T02:17:08.673Z,4.74
2022-10-11T02:19:39.338Z,4.68
2022-10-11T02:22:11.399Z,4.61
2022-10-11T02:24:41.292Z,4.54
2022-10-11T02:27:10.808Z,4.49
2022-10-11T02:29:41.742Z,4.39
2022-10-11T02:32:10.683Z,4.33
2022-10-11T02:34:43.201Z,4.25
2022-10-11T02:37:15.323Z,4.16
2022-10-11T02:39:47.147Z,4.07
2022-10-11T02:42:18.163Z,4.04
2022-10-11T02:44:52.061Z,3.99
2022-10-11T02:47:19.985Z,3.95
2022-10-11T02:49:46.519Z,3.90
2022-10-11T02:52:14.628Z,3.87
2022-10-11T02:54:41.155Z,3.83
2022-10-11T02:57:07.785Z,3.78
2022-10-11T02:59:34.334Z,3.73
2022-10-11T03:02:01.013Z,3.66
2022-10-11T03:04:28.942Z,3.60
2022-10-11T03:06:55.484Z,3.53
2022-10-11T03:09:22.030Z,3.45
2022-10-11T03:11:48.519Z,3.44
2022-10-11T03:14:15.181Z,3.39
2022-10-11T03:16:41.700Z,3.34
2022-10-11T03:19:08.335Z,3.31
2022-10-11T03:21:36.191Z,3.29
2022-10-11T03:24:03.060Z,3.28
2022-10-11T03:26:29.649Z,3.26
2022-10-11T03:28:56.220Z,3.24
2022-10-11T03:31:23.037Z,3.23
2022-10-11T03:33:49.820Z,3.23
2022-10-11T03:36:17.151Z,3.19
2022-10-11T03:38:45.115Z,3.16
2022-10-11T03:41:11.633Z,3.10
2022-10-11T03:43:38.320Z,3.06
2022-10-11T03:46:05.097Z,3.01
2022-10-11T03:48:31.872Z,2.99
2022-10-11T03:50:58.580Z,2.93
2022-10-11T03:53:25.124Z,2.90
2022-10-11T03:55:53.883Z,2.85
2022-10-11T03:58:21.039Z,2.82
2022-10-11T04:00:47.914Z,2.74
2022-10-11T04:03:14.466Z,2.69
2022-10-11T04:05:41.066Z,2.66
2022-10-11T04:08:11.922Z,2.64
2022-10-11T04:10:39.457Z,2.63
2022-10-11T04:13:07.347Z,2.62
2022-10-11T04:15:33.888Z,2.61
2022-10-11T04:18:00.417Z,2.62
2022-10-11T04:20:26.967Z,2.63
2022-10-11T04:22:53.465Z,2.66
2022-10-11T04:25:20.126Z,2.72
2022-10-11T04:27:46.792Z,2.80
2022-10-11T04:30:15.125Z,2.82
2022-10-11T04:32:41.843Z,2.81
2022-10-11T04:35:08.978Z,2.77
2022-10-11T04:37:35.651Z,2.74
2022-10-11T04:40:02.436Z,2.71
2022-10-11T04:42:28.922Z,2.69
2022-10-11T04:44:55.598Z,2.67
2022-10-11T04:47:23.529Z,2.67
2022-10-11T04:49:50.066Z,2.72
2022-10-11T04:52:16.714Z,2.79
2022-10-11T04:54:43.229Z,2.90
2022-10-11T04:57:09.861Z,2.93
2022-10-11T04:59:36.417Z,2.98
2022-10-11T05:02:03.132Z,3.07
2022-10-11T05:04:31.111Z,3.08
2022-10-11T05:06:57.781Z,3.12
2022-10-11T05:09:24.300Z,3.16
2022-10-11T05:11:50.846Z,3.18
2022-10-11T05:14:17.502Z,3.20
2022-10-11T05:16:44.032Z,3.21
2022-10-11T05:19:10.597Z,3.24
2022-10-11T05:21:38.609Z,3.32
2022-10-11T05:24:06.189Z,3.34
2022-10-11T05:26:32.681Z,3.39
2022-10-11T05:28:59.421Z,3.43
2022-10-11T05:31:26.007Z,3.47
2022-10-11T05:33:52.528Z,3.49
2022-10-11T05:36:19.379Z,3.54
2022-10-11T05:38:47.241Z,3.56
2022-10-11T05:41:15.225Z,3.60
2022-10-11T05:43:41.839Z,3.60
2022-10-11T05:46:08.712Z,3.62
2022-10-11T05:48:35.578Z,3.70
2022-10-11T05:51:04.511Z,3.74
2022-10-11T05:53:31.286Z,3.78
2022-10-11T05:55:59.478Z,3.85
2022-10-11T05:58:26.504Z,3.90
2022-10-11T06:00:53.043Z,3.92
2022-10-11T06:03:19.782Z,4.01
2022-10-11T06:05:46.385Z,4.07
2022-10-11T06:08:13.006Z,4.13
2022-10-11T06:10:40.060Z,4.19
2022-10-11T06:13:09.416Z,4.27
2022-10-11T06:15:38.686Z,4.35
2022-10-11T06:18:05.280Z,4.42
2022-10-11T06:20:31.851Z,4.44
2022-10-11T06:22:58.559Z,4.50
2022-10-11T06:25:25.096Z,4.50
2022-10-11T06:27:51.603Z,4.52
2022-10-11T06:30:19.492Z,4.47
2022-10-11T06:32:46.119Z,4.45
2022-10-11T06:35:12.780Z,4.46
2022-10-11T06:37:39.296Z,4.45
2022-10-11T06:40:06.968Z,4.44
2022-10-11T06:42:33.593Z,4.40
2022-10-11T06:45:00.101Z,4.43
2022-10-11T06:47:28.016Z,4.42
2022-10-11T06:49:54.527Z,4.45
2022-10-11T06:52:21.049Z,4.50
2022-10-11T06:54:47.540Z,4.53
2022-10-11T06:57:14.043Z,4.58
2022-10-11T06:59:40.663Z,4.60
2022-10-11T07:02:07.183Z,4.63
2022-10-11T07:04:35.204Z,4.67
2022-10-11T07:07:01.729Z,4.74
2022-10-11T07:09:28.268Z,4.81
2022-10-11T07:11:54.823Z,4.89
2022-10-11T07:14:21.378Z,4.93
2022-10-11T07:16:48.247Z,5.06
2022-10-11T07:19:14.777Z,5.15
2022-10-11T07:21:42.751Z,5.24
2022-10-11T07:24:09.427Z,5.36
2022-10-11T07:26:38.543Z,5.51
2022-10-11T07:29:06.203Z,5.73
2022-10-11T07:31:32.776Z,6.01
2022-10-11T07:33:59.284Z,6.22
2022-10-11T07:36:25.861Z,6.44
2022-10-11T07:38:53.770Z,6.55
2022-10-11T07:41:20.928Z,6.60
2022-10-11T07:43:47.736Z,6.70
2022-10-11T07:46:14.467Z,6.83
2022-10-11T07:48:41.486Z,6.92
2022-10-11T07:51:09.922Z,7.05
2022-10-11T07:53:41.346Z,7.24
2022-10-11T07:56:11.447Z,7.40
2022-10-11T07:58:38.041Z,7.39
2022-10-11T08:01:05.739Z,7.47
2022-10-11T08:03:32.763Z,7.60
2022-10-11T08:06:00.682Z,7.71
2022-10-11T08:08:27.465Z,7.56
2022-10-11T08:10:54.132Z,7.32
2022-10-11T08:13:21.992Z,7.29
2022-10-11T08:15:48.562Z,7.21
2022-10-11T08:18:15.095Z,7.23
2022-10-11T08:20:41.661Z,7.24
2022-10-11T08:23:08.357Z,7.18
2022-10-11T08:25:37.502Z,7.12
2022-10-11T08:28:04.607Z,7.14
2022-10-11T08:30:32.624Z,7.24
2022-10-11T08:32:59.274Z,7.32
2022-10-11T08:35:25.920Z,7.28
2022-10-11T08:37:52.476Z,7.35
2022-10-11T08:40:21.478Z,7.41
2022-10-11T08:42:57.237Z,7.35
2022-10-11T08:45:29.916Z,7.41
2022-10-11T08:48:06.552Z,7.64
2022-10-11T08:50:33.387Z,7.74
2022-10-11T08:53:05.897Z,7.87
2022-10-11T08:55:39.534Z,8.10
2022-10-11T08:58:06.434Z,8.09
2022-10-11T09:00:35.908Z,8.11
2022-10-11T09:03:14.975Z,8.10
2022-10-11T09:05:57.233Z,8.10
2022-10-11T09:08:33.333Z,8.23
2022-10-11T09:11:09.875Z,8.39
2022-10-11T09:13:54.664Z,8.51
2022-10-11T09:16:30.864Z,8.68
2022-10-11T09:19:21.094Z,8.75
2022-10-11T09:21:56.422Z,8.82
2022-10-11T09:24:37.001Z,8.75
2022-10-11T09:27:12.802Z,8.82
2022-10-11T09:29:50.936Z,8.95
2022-10-11T09:32:20.649Z,8.84
2022-10-11T09:34:55.984Z,8.92
2022-10-11T09:37:29.527Z,8.69
2022-10-11T09:40:01.152Z,8.95
2022-10-11T09:42:27.661Z,8.88
2022-10-11T09:44:54.179Z,8.98
2022-10-11T09:47:23.965Z,9.19
2022-10-11T09:49:57.247Z,9.44
2022-10-11T09:52:24.487Z,9.82
2022-10-11T09:54:55.005Z,10.14
2022-10-11T09:57:24.429Z,10.06
2022-10-11T10:00:04.303Z,10.20
2022-10-11T10:02:38.391Z,10.42
2022-10-11T10:05:17.105Z,10.69
2022-10-11T10:08:04.307Z,11.14
2022-10-11T10:10:35.385Z,11.29
2022-10-11T10:13:04.645Z,11.29
2022-10-11T10:15:33.575Z,11.73
2022-10-11T10:18:00.431Z,11.68
2022-10-11T10:20:30.176Z,11.19
2022-10-11T10:22:57.402Z,11.94
2022-10-11T10:25:32.782Z,12.17
2022-10-11T10:28:01.815Z,12.74
2022-10-11T10:30:34.492Z,12.43
2022-10-11T10:33:05.680Z,12.62
2022-10-11T10:35:38.820Z,12.98
2022-10-11T10:38:15.395Z,13.81
2022-10-11T10:40:47.175Z,14.17
2022-10-11T10:43:16.619Z,14.43
2022-10-11T10:46:16.802Z,14.66
2022-10-11T10:51:48.335Z,15.17
2022-10-11T10:54:22.103Z,15.39
2022-10-11T10:56:54.663Z,15.01
2022-10-11T10:59:46.826Z,15.09
2022-10-11T11:02:39.726Z,15.83
2022-10-11T11:05:16.720Z,15.73
2022-10-11T11:07:50.554Z,16.06
2022-10-11T11:10:20.843Z,15.93
2022-10-11T11:12:54.034Z,15.41
2022-10-11T11:15:32.251Z,16.03
2022-10-11T11:18:16.739Z,16.53
2022-10-11T11:20:54.695Z,16.57
2022-10-11T11:23:29.260Z,16.82
2022-10-11T11:26:04.687Z,16.56
2022-10-11T11:28:48.870Z,16.19
2022-10-11T11:31:25.404Z,16.48
2022-10-11T11:34:02.663Z,16.87
2022-10-11T11:36:38.833Z,16.97
2022-10-11T11:39:13.552Z,17.11
2022-10-11T11:41:44.720Z,17.16
2022-10-11T11:44:17.669Z,17.58
2022-10-11T11:46:52.418Z,17.73
2022-10-11T11:49:24.456Z,17.93
2022-10-11T11:51:51.504Z,18.12
2022-10-11T11:54:26.974Z,17.25
2022-10-11T11:57:00.344Z,17.64
2022-10-11T11:59:36.804Z,17.87
2022-10-11T12:02:24.788Z,18.38
2022-10-11T12:04:52.133Z,18.60
2022-10-11T12:07:21.909Z,18.44
2022-10-11T12:09:52.880Z,18.66
2022-10-11T12:12:30.175Z,18.23
2022-10-11T12:15:15.593Z,17.79
2022-10-11T12:18:01.651Z,18.09
2022-10-11T12:20:30.358Z,18.98
2022-10-11T12:22:58.805Z,18.86
2022-10-11T12:25:43.664Z,18.68
2022-10-11T12:29:00.288Z,18.83
2022-10-11T12:31:29.472Z,18.96
2022-10-11T12:34:33.240Z,19.51
2022-10-11T12:37:04.529Z,19.25
2022-10-11T12:39:49.062Z,19.32
2022-10-11T12:42:26.503Z,19.23
2022-10-11T12:45:28.728Z,19.50
2022-10-11T12:48:15.902Z,19.81
2022-10-11T12:50:52.508Z,19.22
2022-10-11T12:53:33.015Z,19.16
2022-10-11T12:56:05.331Z,19.64
2022-10-11T12:58:35.820Z,20.04
2022-10-11T13:01:19.095Z,19.89
2022-10-11T13:03:50.722Z,19.99
2022-10-11T13:06:20.454Z,19.88
2022-10-11T13:08:52.447Z,20.00
2022-10-11T13:11:22.508Z,19.97
2022-10-11T13:13:53.929Z,19.96
2022-10-11T13:16:23.409Z,19.88
2022-10-11T13:18:56.021Z,19.83
2022-10-11T13:21:29.748Z,20.19
2022-10-11T13:23:58.937Z,19.99
2022-10-11T13:26:26.439Z,19.82
2022-10-11T13:28:54.552Z,20.06
2022-10-11T13:31:23.051Z,20.09
2022-10-11T13:33:53.493Z,20.25
2022-10-11T13:36:20.083Z,20.07
2022-10-11T13:38:54.512Z,20.22
2022-10-11T13:41:21.931Z,20.14
2022-10-11T13:43:49.292Z,19.94
2022-10-11T13:46:21.220Z,19.65
2022-10-11T13:49:00.891Z,19.97
2022-10-11T13:51:33.591Z,20.01
2022-10-11T13:54:02.491Z,19.80
2022-10-11T13:56:32.309Z,19.86
2022-10-11T13:59:00.279Z,19.85
2022-10-11T14:01:36.355Z,19.79
2022-10-11T14:04:05.410Z,19.41
2022-10-11T14:06:52.686Z,19.48
2022-10-11T14:09:21.539Z,19.64
2022-10-11T14:11:48.375Z,19.65
2022-10-11T14:14:40.783Z,19.52
2022-10-11T14:17:16.231Z,19.49
2022-10-11T14:19:43.966Z,19.75
2022-10-11T14:22:13.871Z,19.55
2022-10-11T14:24:40.419Z,19.57
2022-10-11T14:27:16.466Z,19.63
2022-10-11T14:29:45.687Z,19.57
2022-10-11T14:32:30.098Z,19.47
2022-10-11T14:34:57.023Z,19.25
2022-10-11T14:37:23.840Z,18.53
2022-10-11T14:39:50.520Z,18.76
2022-10-11T14:42:17.494Z,18.74
2022-10-11T14:44:44.189Z,18.83
2022-10-11T14:47:15.217Z,18.66
2022-10-11T14:49:44.180Z,18.49
2022-10-11T14:52:12.917Z,18.51
2022-10-11T14:54:40.008Z,18.48
2022-10-11T14:57:06.529Z,18.65
2022-10-11T14:59:34.717Z,18.30
2022-10-11T15:02:01.797Z,18.33
2022-10-11T15:04:28.562Z,18.33
2022-10-11T15:06:57.371Z,18.42
2022-10-11T15:09:24.321Z,18.41
2022-10-11T15:11:52.765Z,18.21
2022-10-11T15:14:19.404Z,18.24
2022-10-11T15:16:46.012Z,17.81
2022-10-11T15:19:15.032Z,17.45
2022-10-11T15:21:41.600Z,17.16
2022-10-11T15:24:09.540Z,16.99
2022-10-11T15:26:36.044Z,16.41
2022-10-11T15:29:02.803Z,16.39
2022-10-11T15:31:29.349Z,16.27
2022-10-11T15:33:56.008Z,16.09
2022-10-11T15:36:22.684Z,16.02
2022-10-11T15:38:49.612Z,15.86
2022-10-11T15:41:19.457Z,15.67
2022-10-11T15:43:47.575Z,15.35
2022-10-11T15:46:16.955Z,15.04
2022-10-11T15:48:43.852Z,14.65
2022-10-11T15:51:10.448Z,14.60
2022-10-11T15:53:37.036Z,14.62
2022-10-11T15:56:06.933Z,14.56
2022-10-11T15:58:37.093Z,14.49
2022-10-11T16:01:05.863Z,14.30
2022-10-11T16:03:33.554Z,14.21
2022-10-11T16:06:05.187Z,13.99
2022-10-11T16:08:33.000Z,13.77
2022-10-11T16:10:59.991Z,13.57
2022-10-11T16:13:26.507Z,13.45
2022-10-11T16:15:54.555Z,13.26
2022-10-11T16:18:21.243Z,13.06
2022-10-11T16:20:49.445Z,12.73
2022-10-11T16:23:15.974Z,12.54
2022-10-11T16:25:42.575Z,12.33
2022-10-11T16:28:10.255Z,12.10
2022-10-11T16:30:39.611Z,11.86
2022-10-11T16:33:07.485Z,11.71
2022-10-11T16:35:34.019Z,11.55
2022-10-11T16:38:00.984Z,11.40
2022-10-11T16:40:27.672Z,11.21
2022-10-11T16:42:54.213Z,11.09
2022-10-11T16:45:20.727Z,10.90
2022-10-11T16:47:47.270Z,10.71
2022-10-11T16:50:15.117Z,10.47
2022-10-11T16:52:41.614Z,10.27
2022-10-11T16:55:08.936Z,10.10
2022-10-11T16:57:35.436Z,9.90
2022-10-11T17:00:02.082Z,9.78
2022-10-11T17:02:32.255Z,9.62
2022-10-11T17:04:59.399Z,9.51
2022-10-11T17:07:27.685Z,9.32
2022-10-11T17:09:54.585Z,9.18
2022-10-11T17:12:22.916Z,9.05
2022-10-11T17:14:49.960Z,8.91
2022-10-11T17:17:18.129Z,8.86
2022-10-11T17:19:45.648Z,8.76
2022-10-11T17:22:13.912Z,8.67
2022-10-11T17:24:42.180Z,8.57
2022-10-11T17:27:09.078Z,8.42
2022-10-11T17:29:35.904Z,8.33
2022-10-11T17:32:02.799Z,8.19
2022-10-11T17:34:29.540Z,8.06
2022-10-11T17:36:56.155Z,7.96
2022-10-11T17:39:23.938Z,7.83
2022-10-11T17:41:52.116Z,7.77
2022-10-11T17:44:18.983Z,7.62
2022-10-11T17:46:46.425Z,7.50
2022-10-11T17:49:13.532Z,7.39
2022-10-11T17:51:40.556Z,7.25
2022-10-11T17:54:07.928Z,7.14
2022-10-11T17:56:37.870Z,7.05
2022-10-11T17:59:06.852Z,6.99
2022-10-11T18:01:33.657Z,6.92
2022-10-11T18:04:02.234Z,6.81
2022-10-11T18:06:30.647Z,6.74
2022-10-11T18:09:00.829Z,6.66
2022-10-11T18:11:27.427Z,6.61
2022-10-11T18:13:54.192Z,6.53
2022-10-11T18:16:23.981Z,6.47
2022-10-11T18:18:50.616Z,6.40
2022-10-11T18:21:17.499Z,6.36
2022-10-11T18:23:44.299Z,6.28
2022-10-11T18:26:13.167Z,6.23
2022-10-11T18:28:40.294Z,6.19
2022-10-11T18:31:12.643Z,6.05
2022-10-11T18:33:42.579Z,6.01
2022-10-11T18:36:09.922Z,6.00
2022-10-11T18:38:36.666Z,5.96
2022-10-11T18:41:05.279Z,5.85
2022-10-11T18:43:32.332Z,5.78
2022-10-11T18:46:03.607Z,5.69
2022-10-11T18:48:30.190Z,5.64
2022-10-11T18:51:03.985Z,5.58
2022-10-11T18:53:30.917Z,5.51
2022-10-11T18:55:58.593Z,5.46
2022-10-11T18:58:25.138Z,5.34
2022-10-11T19:00:51.665Z,5.27
2022-10-11T19:03:18.221Z,5.23
2022-10-11T19:05:44.780Z,5.21
2022-10-11T19:08:12.750Z,5.20
2022-10-11T19:10:39.300Z,5.14
2022-10-11T19:13:05.967Z,5.11
2022-10-11T19:15:34.920Z,5.09
2022-10-11T19:18:01.455Z,5.06
2022-10-11T19:20:28.028Z,5.01
2022-10-11T19:22:54.557Z,4.98
2022-10-11T19:25:22.483Z,4.92
2022-10-11T19:27:48.998Z,4.87
2022-10-11T19:30:15.741Z,4.84
2022-10-11T19:32:42.275Z,4.83
2022-10-11T19:35:09.711Z,4.78
2022-10-11T19:37:36.418Z,4.67
2022-10-11T19:40:03.135Z,4.59
2022-10-11T19:42:31.276Z,4.58
2022-10-11T19:44:58.087Z,4.53
2022-10-11T19:47:24.664Z,4.49
2022-10-11T19:49:51.214Z,4.42
2022-10-11T19:52:17.863Z,4.34
2022-10-11T19:54:44.458Z,4.24
2022-10-11T19:57:11.096Z,4.20
2022-10-11T19:59:38.930Z,4.13
2022-10-11T20:02:05.532Z,4.12
2022-10-11T20:07:18.488Z,4.02
2022-10-11T20:09:45.031Z,3.98
2022-10-11T20:12:11.671Z,3.93
2022-10-11T20:14:39.535Z,3.84
2022-10-11T20:17:06.081Z,3.72
2022-10-11T20:19:32.579Z,3.72
2022-10-11T20:22:00.009Z,3.68
2022-10-11T20:24:26.557Z,3.63
2022-10-11T20:26:53.096Z,3.64
2022-10-11T20:29:19.691Z,3.61
2022-10-11T20:31:47.575Z,3.61
2022-10-11T20:34:14.309Z,3.58
2022-10-11T20:36:40.926Z,3.50
2022-10-11T20:39:08.210Z,3.44
2022-10-11T20:41:36.679Z,3.37
2022-10-11T20:44:04.391Z,3.34
2022-10-11T20:46:32.805Z,3.30
2022-10-11T20:49:02.622Z,3.27
2022-10-11T20:51:30.293Z,3.25
2022-10-11T20:53:56.818Z,3.20
2022-10-11T20:56:23.382Z,3.16
2022-10-11T20:58:50.772Z,3.08
2022-10-11T21:01:19.438Z,3.04
2022-10-11T21:03:46.324Z,3.03
2022-10-11T21:06:14.473Z,2.97
2022-10-11T21:08:41.003Z,2.91
2022-10-11T21:11:08.911Z,2.85
2022-10-11T21:13:35.711Z,2.81
2022-10-11T21:16:05.256Z,2.74
2022-10-11T21:18:31.917Z,2.69
2022-10-11T21:21:04.983Z,2.67
2022-10-11T21:23:33.004Z,2.64
2022-10-11T21:26:00.831Z,2.59
2022-10-11T21:28:27.353Z,2.56
2022-10-11T21:30:53.893Z,2.57
2022-10-11T21:33:20.390Z,2.55
2022-10-11T21:35:46.914Z,2.51
2022-10-11T21:38:13.427Z,2.48
2022-10-11T21:40:41.327Z,2.42
2022-10-11T21:43:07.843Z,2.37
2022-10-11T21:45:36.623Z,2.34
2022-10-11T21:48:03.211Z,2.26
2022-10-11T21:50:29.713Z,2.22
2022-10-11T21:52:56.377Z,2.16
2022-10-11T21:55:22.856Z,2.12
2022-10-11T21:57:50.727Z,2.12
2022-10-11T22:00:17.287Z,2.09
2022-10-11T22:02:43.900Z,2.08
2022-10-11T22:05:12.443Z,2.05
2022-10-11T22:07:41.306Z,1.96
2022-10-11T22:10:09.328Z,1.91
2022-10-11T22:12:38.708Z,1.89
2022-10-11T22:15:11.174Z,1.95
2022-10-11T22:17:37.856Z,1.91
2022-10-11T22:20:04.895Z,1.93
2022-10-11T22:22:31.485Z,1.89
2022-10-11T22:24:57.989Z,1.85
2022-10-11T22:27:24.637Z,1.82
2022-10-11T22:29:51.157Z,1.74
2022-10-11T22:32:19.036Z,1.71
2022-10-11T22:34:45.532Z,1.71
2022-10-11T22:37:12.122Z,1.67
2022-10-11T22:39:38.638Z,1.65
2022-10-11T22:42:05.353Z,1.63
2022-10-11T22:44:31.867Z,1.61
2022-10-11T22:46:58.363Z,1.58
2022-10-11T22:49:26.210Z,1.54
2022-10-11T22:51:52.677Z,1.50
2022-10-11T22:54:19.285Z,1.49
2022-10-11T22:56:45.765Z,1.47
2022-10-11T22:59:12.272Z,1.47
2022-10-11T23:01:38.758Z,1.47
2022-10-11T23:04:05.368Z,1.46
2022-10-11T23:06:33.245Z,1.44
2022-10-11T23:08:59.762Z,1.41
2022-10-11T23:11:26.360Z,1.40
2022-10-11T23:13:53.036Z,1.39
2022-10-11T23:16:19.872Z,1.37
2022-10-11T23:18:46.449Z,1.35
2022-10-11T23:21:12.941Z,1.32
2022-10-11T23:23:40.785Z,1.28
2022-10-11T23:26:10.141Z,1.21
2022-10-11T23:28:37.319Z,1.19
2022-10-11T23:31:08.464Z,1.17
2022-10-11T23:33:35.489Z,1.14
2022-10-11T23:36:02.025Z,1.11
2022-10-11T23:38:28.743Z,1.10
2022-10-11T23:40:56.641Z,1.08
2022-10-11T23:43:23.631Z,1.08
2022-10-11T23:45:50.195Z,1.07
2022-10-11T23:48:16.717Z,1.07
2022-10-11T23:50:43.243Z,1.02
2022-10-11T23:53:10.695Z,1.02
2022-10-11T23:55:37.208Z,0.94
2022-10-11T23:58:05.215Z,0.92
